createdAt,value
2022-12-27T00:03:35.784Z,2.40
2022-12-27T00:18:39.249Z,3.00
2022-12-27T00:33:43.171Z,2.22
2022-12-27T00:48:45.586Z,1.90
2022-12-27T01:03:47.806Z,2.00
2022-12-27T01:18:50.240Z,2.15
2022-12-27T01:33:59.604Z,2.83
2022-12-27T01:49:05.168Z,2.35
2022-12-27T02:04:12.369Z,2.20
2022-12-27T02:19:41.438Z,2.50
2022-12-27T02:35:00.481Z,2.42
2022-12-27T02:50:21.221Z,1.60
2022-12-27T03:06:30.183Z,1.40
2022-12-27T03:21:53.324Z,2.03
2022-12-27T03:37:17.085Z,2.38
2022-12-27T03:52:19.718Z,2.38
2022-12-27T04:07:21.661Z,2.17
2022-12-27T04:22:42.030Z,1.95
2022-12-27T04:37:44.012Z,2.40
2022-12-27T04:53:04.868Z,2.00
2022-12-27T05:08:26.655Z,2.20
2022-12-27T05:23:47.342Z,1.92
2022-12-27T05:38:49.700Z,2.38
2022-12-27T05:53:51.630Z,2.63
2022-12-27T06:08:54.451Z,2.03
2022-12-27T06:23:56.368Z,2.00
2022-12-27T06:38:59.059Z,1.77
2022-12-27T06:54:01.066Z,2.63
2022-12-27T07:09:03.812Z,2.45
2022-12-27T07:24:06.297Z,1.85
2022-12-27T07:39:09.109Z,2.63
2022-12-27T07:54:11.012Z,2.40
2022-12-27T08:09:15.707Z,2.55
2022-12-27T08:24:17.717Z,2.50
2022-12-27T08:39:20.679Z,2.60
2022-12-27T08:54:22.609Z,2.13
2022-12-27T09:09:24.583Z,2.60
2022-12-27T09:24:26.538Z,2.10
2022-12-27T09:39:28.498Z,2.08
2022-12-27T09:54:37.563Z,2.45
2022-12-27T10:09:51.463Z,2.20
2022-12-27T10:25:00.248Z,2.50
2022-12-27T10:40:11.543Z,2.30
2022-12-27T10:55:39.815Z,2.53
2022-12-27T11:10:42.051Z,3.93
2022-12-27T11:26:05.254Z,2.42
2022-12-27T11:41:14.177Z,2.47
2022-12-27T12:12:04.283Z,2.60
2022-12-27T12:27:30.439Z,2.47
2022-12-27T12:42:44.291Z,2.10
2022-12-27T12:57:46.189Z,2.22
2022-12-27T13:13:22.356Z,3.33
2022-12-27T13:28:39.365Z,2.70
2022-12-27T13:44:01.650Z,2.30
2022-12-27T13:59:54.156Z,2.40
2022-12-27T14:14:59.651Z,4.38
2022-12-27T14:30:32.850Z,3.22
2022-12-27T14:45:57.823Z,3.55
2022-12-27T15:01:17.452Z,5.28
2022-12-27T15:16:28.728Z,6.68
2022-12-27T15:31:45.904Z,7.65
2022-12-27T15:47:09.101Z,4.80
2022-12-27T16:02:17.515Z,6.63
2022-12-27T16:17:55.347Z,9.70
2022-12-27T16:32:57.657Z,8.43
2022-12-27T16:48:27.714Z,8.23
2022-12-27T17:03:35.793Z,8.30
2022-12-27T17:19:03.578Z,6.90
2022-12-27T17:34:21.881Z,7.47
2022-12-27T17:49:32.373Z,6.67
2022-12-27T18:04:39.034Z,6.22
2022-12-27T18:19:41.001Z,9.55
2022-12-27T18:35:09.048Z,9.75
2022-12-27T18:50:19.666Z,14.20
2022-12-27T19:05:21.887Z,14.43
2022-12-27T19:20:33.307Z,12.05
2022-12-27T19:35:35.780Z,11.95
2022-12-27T19:50:50.661Z,13.95
2022-12-27T20:06:14.360Z,15.05
2022-12-27T20:21:20.039Z,13.75
2022-12-27T20:36:22.938Z,13.60
2022-12-27T20:51:37.338Z,12.45
2022-12-27T21:06:39.399Z,9.32
2022-12-27T21:21:42.007Z,11.95
2022-12-27T21:36:44.143Z,9.90
2022-12-27T21:51:46.379Z,9.23
2022-12-27T22:06:48.485Z,9.38
2022-12-27T22:21:50.457Z,11.38
2022-12-27T22:36:53.279Z,12.65
2022-12-27T22:51:55.259Z,9.77
2022-12-27T23:06:57.413Z,11.57
2022-12-27T23:21:59.383Z,8.80
2022-12-27T23:37:01.562Z,8.18
2022-12-27T23:52:04.041Z,8.30
